createdAt,value
2023-04-11T00:00:24.220Z,99196.81
2023-04-11T00:02:54.825Z,99202.88
2023-04-11T00:05:22.672Z,99169.22
2023-04-11T00:07:50.818Z,99196.00
2023-04-11T00:10:18.802Z,99189.97
2023-04-11T00:12:46.608Z,99192.47
2023-04-11T00:15:16.178Z,99203.97
2023-04-11T00:17:45.656Z,99183.38
2023-04-11T00:20:14.769Z,99173.63
2023-04-11T00:22:43.797Z,99034.88
2023-04-11T00:25:11.465Z,99200.34
2023-04-11T00:27:40.316Z,99131.41
2023-04-11T00:30:08.904Z,99191.56
2023-04-11T00:32:38.738Z,99184.84
2023-04-11T00:35:09.767Z,99183.78
2023-04-11T00:37:56.361Z,99172.00
2023-04-11T00:40:24.134Z,99181.88
2023-04-11T00:42:52.905Z,99161.22
2023-04-11T00:45:20.723Z,99217.66
2023-04-11T00:47:48.702Z,99119.94
2023-04-11T00:50:17.883Z,99171.25
2023-04-11T00:52:47.154Z,99111.94
2023-04-11T00:55:15.243Z,98958.53
2023-04-11T00:57:44.224Z,99191.22
2023-04-11T01:00:13.589Z,99182.53
2023-04-11T01:02:45.102Z,98988.16
2023-04-11T01:05:13.198Z,99192.84
2023-04-11T01:07:45.666Z,99139.31
2023-04-11T01:10:13.383Z,99195.41
2023-04-11T01:12:41.287Z,99151.38
2023-04-11T01:15:09.961Z,99182.22
2023-04-11T01:17:38.012Z,99189.19
2023-04-11T01:20:07.871Z,99172.59
2023-04-11T01:22:35.815Z,98896.28
2023-04-11T01:25:05.084Z,99083.75
2023-04-11T01:27:34.046Z,99160.28
2023-04-11T01:30:01.906Z,99160.19
2023-04-11T01:32:30.146Z,99163.72
2023-04-11T01:34:58.295Z,99147.75
2023-04-11T01:37:26.175Z,99151.28
2023-04-11T01:39:53.868Z,99164.72
2023-04-11T01:42:23.673Z,99163.03
2023-04-11T01:44:51.956Z,98783.34
2023-04-11T01:47:19.798Z,99013.31
2023-04-11T01:49:47.470Z,99129.38
2023-04-11T01:52:15.563Z,99098.28
2023-04-11T01:54:43.230Z,99145.44
2023-04-11T01:57:10.928Z,99148.53
2023-04-11T01:59:40.171Z,99162.06
2023-04-11T02:02:08.066Z,99066.28
2023-04-11T02:04:37.064Z,99162.81
2023-04-11T02:07:04.734Z,99110.13
2023-04-11T02:09:32.750Z,99169.84
2023-04-11T02:12:00.989Z,99170.75
2023-04-11T02:14:29.860Z,99138.06
2023-04-11T02:16:59.275Z,99172.59
2023-04-11T02:19:27.637Z,99186.53
2023-04-11T02:21:55.416Z,99171.66
2023-04-11T02:24:23.238Z,99131.06
2023-04-11T02:26:50.986Z,99124.34
2023-04-11T02:29:19.048Z,99130.66
2023-04-11T02:31:49.349Z,99179.91
2023-04-11T02:34:18.668Z,99175.00
2023-04-11T02:36:46.570Z,99163.16
2023-04-11T02:39:14.934Z,99145.78
2023-04-11T02:41:42.810Z,99187.31
2023-04-11T02:44:12.132Z,99112.34
2023-04-11T02:46:40.096Z,99190.06
2023-04-11T02:49:07.961Z,99193.59
2023-04-11T02:51:37.165Z,99163.50
2023-04-11T02:54:05.344Z,99102.06
2023-04-11T02:56:34.933Z,99021.41
2023-04-11T02:59:02.653Z,99203.34
2023-04-11T03:01:30.665Z,99209.50
2023-04-11T03:03:58.792Z,99208.72
2023-04-11T03:06:27.356Z,99224.47
2023-04-11T03:08:57.124Z,99170.94
2023-04-11T03:11:25.489Z,99161.41
2023-04-11T03:13:53.320Z,98907.47
2023-04-11T03:16:21.303Z,99222.81
2023-04-11T03:18:49.003Z,99209.22
2023-04-11T03:21:16.908Z,99180.47
2023-04-11T03:23:44.576Z,99113.19
2023-04-11T03:26:14.423Z,99137.38
2023-04-11T03:28:42.428Z,99220.28
2023-04-11T03:31:11.660Z,99166.88
2023-04-11T03:33:39.486Z,99230.84
2023-04-11T03:36:08.359Z,99179.72
2023-04-11T03:38:36.175Z,99105.88
2023-04-11T03:41:04.178Z,99230.03
2023-04-11T03:43:33.676Z,99177.16
2023-04-11T03:46:01.557Z,99205.59
2023-04-11T03:48:29.922Z,99165.53
2023-04-11T03:50:59.686Z,99219.06
2023-04-11T03:53:27.447Z,99211.41
2023-04-11T03:55:55.412Z,99212.31
2023-04-11T03:58:23.232Z,99243.69
2023-04-11T04:00:52.283Z,99230.59
2023-04-11T04:03:22.576Z,99220.56
2023-04-11T04:05:50.763Z,99085.00
2023-04-11T04:08:22.673Z,99246.44
2023-04-11T04:10:50.577Z,99242.84
2023-04-11T04:13:21.468Z,99255.13
2023-04-11T04:15:49.185Z,99243.81
2023-04-11T04:18:18.704Z,99177.75
2023-04-11T04:20:47.399Z,99226.38
2023-04-11T04:23:17.958Z,99098.03
2023-04-11T04:25:48.823Z,99243.00
2023-04-11T04:28:20.610Z,99165.47
2023-04-11T04:30:50.128Z,99134.72
2023-04-11T04:33:19.663Z,98924.16
2023-04-11T04:35:47.436Z,99191.66
2023-04-11T04:38:18.255Z,99242.47
2023-04-11T04:40:46.329Z,99234.22
2023-04-11T04:43:18.486Z,99199.81
2023-04-11T04:45:46.674Z,99325.94
2023-04-11T04:48:17.401Z,99257.75
2023-04-11T04:50:46.589Z,99246.59
2023-04-11T04:53:14.338Z,99256.94
2023-04-11T06:56:48.993Z,99414.94
2023-04-11T06:59:19.969Z,99324.94
2023-04-11T07:01:49.289Z,99364.53
2023-04-11T07:04:21.614Z,99339.59
2023-04-11T07:11:52.195Z,99129.53
2023-04-11T07:26:05.759Z,99255.19
2023-04-11T07:48:34.308Z,99415.22
2023-04-11T07:52:02.806Z,99456.53
2023-04-11T08:18:48.196Z,99459.78
2023-04-11T08:21:20.254Z,99406.28
2023-04-11T08:23:52.264Z,99390.22
2023-04-11T08:33:30.133Z,99297.19
2023-04-11T08:36:05.910Z,99299.78
2023-04-11T08:38:35.304Z,99415.53
2023-04-11T08:41:07.276Z,99427.38
2023-04-11T08:43:36.086Z,99453.69
2023-04-11T09:02:19.438Z,99363.78
2023-04-11T09:04:49.293Z,99493.63
2023-04-11T09:07:21.445Z,99495.03
2023-04-11T09:09:49.379Z,99403.97
2023-04-11T09:12:17.116Z,99470.44
2023-04-11T09:14:45.102Z,99480.25
2023-04-11T09:17:17.208Z,99465.19
2023-04-11T09:19:49.225Z,99378.28
2023-04-11T09:22:18.047Z,99347.41
2023-04-11T09:24:46.937Z,99420.06
2023-04-11T09:27:16.931Z,99459.69
2023-04-11T09:29:46.845Z,99436.13
2023-04-11T09:32:30.571Z,99520.84
2023-04-11T09:35:18.207Z,99468.72
2023-04-11T09:37:47.063Z,99402.09
2023-04-11T09:40:16.641Z,99490.44
2023-04-11T09:42:44.764Z,99467.38
2023-04-11T09:45:21.658Z,99493.69
2023-04-11T09:47:51.616Z,99510.41
2023-04-11T09:50:24.066Z,99437.06
2023-04-11T09:52:53.899Z,99513.75
2023-04-11T09:55:23.075Z,99359.50
2023-04-11T09:57:52.498Z,99375.56
2023-04-11T10:00:22.280Z,99418.56
2023-04-11T10:02:53.348Z,99442.06
2023-04-11T11:26:44.445Z,99324.91
2023-04-11T13:47:43.384Z,99200.97
2023-04-11T14:17:27.144Z,99514.56
2023-04-11T14:19:54.935Z,99371.19
2023-04-11T14:22:22.760Z,99217.75
2023-04-11T14:24:50.576Z,99485.78
2023-04-11T14:27:18.491Z,99551.47
2023-04-11T14:29:47.482Z,99513.88
2023-04-11T14:32:15.608Z,99329.75
2023-04-11T14:34:46.143Z,99400.78
2023-04-11T14:37:14.281Z,99490.28
2023-04-11T14:39:42.462Z,99416.16
2023-04-11T14:42:10.256Z,99504.25
2023-04-11T14:44:40.553Z,99352.94
2023-04-11T14:47:08.496Z,99396.44
2023-04-11T14:49:39.012Z,99271.63
2023-04-11T14:52:08.351Z,99408.94
2023-04-11T14:54:36.276Z,99152.66
2023-04-11T14:57:10.453Z,99508.59
2023-04-11T14:59:38.576Z,99196.69
2023-04-11T15:02:07.693Z,99422.47
2023-04-11T15:04:35.781Z,99367.28
2023-04-11T15:07:04.778Z,99444.28
2023-04-11T15:09:34.682Z,99074.97
2023-04-11T15:12:02.924Z,99570.63
2023-04-11T15:14:55.985Z,99235.25
2023-04-11T15:17:23.964Z,99293.66
2023-04-11T15:19:52.416Z,99506.91
2023-04-11T15:22:20.254Z,99263.25
2023-04-11T15:24:49.559Z,99403.72
2023-04-11T15:27:17.377Z,99155.84
2023-04-11T15:29:45.770Z,99500.31
2023-04-11T15:32:13.624Z,99214.84
2023-04-11T15:34:41.617Z,99409.97
2023-04-11T15:37:11.631Z,99247.25
2023-04-11T15:39:39.485Z,99397.50
2023-04-11T15:42:08.874Z,99377.84
2023-04-11T15:44:36.665Z,99262.38
2023-04-11T15:47:04.581Z,99396.56
2023-04-11T15:49:32.399Z,99157.56
2023-04-11T15:52:00.192Z,99446.28
2023-04-11T15:54:28.340Z,99372.50
2023-04-11T15:56:57.362Z,99297.72
2023-04-11T15:59:26.630Z,99235.78
2023-04-11T16:01:54.537Z,99160.47
2023-04-11T16:04:22.521Z,99417.34
2023-04-11T16:06:51.051Z,99491.13
2023-04-11T16:09:20.052Z,99334.16
2023-04-11T16:11:47.949Z,99436.34
2023-04-11T16:14:15.775Z,99201.75
2023-04-11T16:16:47.381Z,99483.81
2023-04-11T16:19:15.591Z,99270.06
2023-04-11T16:21:43.757Z,99443.91
2023-04-11T16:24:11.740Z,99508.84
2023-04-11T16:26:39.638Z,99393.78
2023-04-11T16:29:07.560Z,99383.75
2023-04-11T16:31:36.483Z,99481.19
2023-04-11T16:34:05.951Z,99459.16
2023-04-11T16:36:34.321Z,99323.72
2023-04-11T16:39:04.145Z,99329.75
2023-04-11T16:41:36.228Z,99410.09
2023-04-11T16:44:05.861Z,99424.97
2023-04-11T16:46:44.869Z,99495.88
2023-04-11T16:49:16.287Z,99481.50
2023-04-11T16:51:44.408Z,99373.72
2023-04-11T16:54:13.696Z,99386.63
2023-04-11T16:56:41.669Z,99041.50
2023-04-11T16:59:10.210Z,99139.84
2023-04-11T17:01:38.456Z,99467.94
2023-04-11T17:04:06.803Z,99582.94
2023-04-11T17:06:36.962Z,99282.06
2023-04-11T17:09:06.276Z,99368.38
2023-04-11T17:11:37.380Z,99339.19
2023-04-11T17:14:05.620Z,99279.44
2023-04-11T17:16:33.512Z,99509.53
2023-04-11T17:19:01.231Z,99291.66
2023-04-11T17:21:33.451Z,99181.69
2023-04-11T17:24:02.828Z,99253.72
2023-04-11T17:26:30.756Z,99425.38
2023-04-11T17:28:59.068Z,99500.41
2023-04-11T17:31:29.580Z,99484.09
2023-04-11T17:33:57.805Z,99426.16
2023-04-11T17:36:26.171Z,99240.59
2023-04-11T17:38:54.750Z,99249.72
2023-04-11T17:41:24.158Z,99028.13
2023-04-11T17:43:52.083Z,99433.47
2023-04-11T17:46:20.481Z,99377.72
2023-04-11T17:48:48.549Z,99379.19
2023-04-11T17:51:18.935Z,99430.19
2023-04-11T17:53:47.260Z,99078.16
2023-04-11T17:56:15.882Z,99161.47
2023-04-11T17:58:46.708Z,99179.63
2023-04-11T18:01:18.249Z,99423.00
2023-04-11T18:03:50.364Z,99510.97
2023-04-11T18:06:18.503Z,99185.22
2023-04-11T18:08:51.500Z,99441.75
2023-04-11T18:11:20.914Z,99361.28
2023-04-11T18:13:50.693Z,99274.53
2023-04-11T18:16:18.795Z,99232.25
2023-04-11T18:18:47.230Z,99151.69
2023-04-11T18:21:16.044Z,99278.59
2023-04-11T18:23:45.417Z,99052.41
2023-04-11T18:26:13.707Z,99297.09
2023-04-11T18:28:41.556Z,99361.09
2023-04-11T18:31:11.092Z,99135.13
2023-04-11T18:33:42.966Z,99120.91
2023-04-11T18:36:12.372Z,99275.38
2023-04-11T18:38:40.374Z,99445.31
2023-04-11T18:41:08.686Z,99368.25
2023-04-11T18:43:38.456Z,99325.63
2023-04-11T18:46:07.519Z,99174.00
2023-04-11T18:48:40.007Z,99375.91
2023-04-11T18:51:11.752Z,99128.47
2023-04-11T18:53:40.904Z,99438.34
2023-04-11T18:56:09.269Z,99221.34
2023-04-11T18:58:45.311Z,99310.09
2023-04-11T19:01:17.273Z,99328.38
2023-04-11T19:03:47.858Z,99331.56
2023-04-11T19:06:16.904Z,99240.88
2023-04-11T19:08:45.130Z,99167.63
2023-04-11T19:11:13.213Z,99298.94
2023-04-11T19:13:41.285Z,99415.88
2023-04-11T19:16:09.320Z,99414.41
2023-04-11T19:18:37.487Z,98979.47
2023-04-11T19:21:07.895Z,99278.84
2023-04-11T19:23:35.966Z,99290.03
2023-04-11T19:26:04.151Z,99318.59
2023-04-11T19:28:32.422Z,99439.38
2023-04-11T19:31:00.579Z,99165.19
2023-04-11T19:33:28.558Z,99154.78
2023-04-11T19:35:57.574Z,99440.63
2023-04-11T19:38:27.069Z,99278.88
2023-04-11T19:40:55.799Z,99309.38
2023-04-11T19:43:23.819Z,98955.63
2023-04-11T19:45:52.122Z,99252.59
2023-04-11T19:48:22.874Z,99008.38
2023-04-11T19:50:50.980Z,99210.56
2023-04-11T19:53:18.764Z,99276.69
2023-04-11T19:55:53.453Z,99026.25
2023-04-11T19:58:22.281Z,99057.25
2023-04-11T20:00:51.150Z,99214.88
2023-04-11T20:03:19.191Z,99236.84
2023-04-11T20:05:47.660Z,98975.53
2023-04-11T20:08:15.670Z,98979.81
2023-04-11T20:10:43.521Z,99342.47
2023-04-11T20:13:12.796Z,99083.50
2023-04-11T20:15:40.895Z,99017.09
2023-04-11T20:18:10.849Z,99267.72
2023-04-11T20:20:38.713Z,99164.59
2023-04-11T20:23:07.163Z,99293.25
2023-04-11T20:25:36.047Z,99320.28
2023-04-11T20:28:03.903Z,99055.66
2023-04-11T20:30:33.289Z,99021.97
2023-04-11T20:33:01.729Z,99268.94
2023-04-11T20:35:29.861Z,99218.78
2023-04-11T20:37:57.747Z,99139.38
2023-04-11T20:40:25.851Z,99083.56
2023-04-11T20:42:56.393Z,99010.38
2023-04-11T20:45:27.802Z,99218.41
2023-04-11T20:47:59.774Z,99109.00
2023-04-11T20:50:33.452Z,98991.38
2023-04-11T20:53:01.875Z,99204.78
2023-04-11T20:55:30.524Z,98879.22
2023-04-11T20:57:58.553Z,99018.06
2023-04-11T21:00:26.701Z,98910.34
2023-04-11T21:02:59.232Z,99315.84
2023-04-11T21:05:27.520Z,99164.66
2023-04-11T21:07:55.419Z,99007.88
2023-04-11T21:10:23.445Z,99024.81
2023-04-11T21:12:53.774Z,99016.72
2023-04-11T21:15:22.051Z,99233.88
2023-04-11T21:17:50.491Z,98816.16
2023-04-11T21:20:20.792Z,99202.53
2023-04-11T21:22:49.060Z,99093.19
2023-04-11T21:25:17.185Z,99374.22
2023-04-11T21:27:45.016Z,98833.00
2023-04-11T21:30:13.471Z,99253.41
2023-04-11T21:32:41.455Z,99172.66
2023-04-11T21:35:10.483Z,98986.84
2023-04-11T21:37:39.746Z,99049.81
2023-04-11T21:40:08.772Z,99231.47
2023-04-11T21:42:36.718Z,99164.25
2023-04-11T21:45:04.979Z,98865.75
2023-04-11T21:47:33.015Z,98970.31
2023-04-11T21:50:00.959Z,98766.00
2023-04-11T21:52:28.817Z,99055.75
2023-04-11T21:54:58.082Z,99213.53
2023-04-11T21:57:26.068Z,98931.97
2023-04-11T21:59:54.009Z,99046.91
2023-04-11T22:02:22.228Z,99065.00
2023-04-11T22:05:04.857Z,99298.16
2023-04-11T22:07:39.074Z,98987.22
2023-04-11T22:10:12.276Z,99067.06
2023-04-11T22:12:40.177Z,99000.75
2023-04-11T22:15:11.089Z,99057.25
2023-04-11T22:17:41.941Z,99209.81
2023-04-11T22:20:11.209Z,98833.13
2023-04-11T22:22:39.590Z,99014.22
2023-04-11T22:25:10.412Z,99159.81
2023-04-11T22:27:38.514Z,99299.13
2023-04-11T22:30:08.810Z,99153.75
2023-04-11T22:32:37.015Z,99030.06
2023-04-11T22:35:05.864Z,99054.91
2023-04-11T22:37:34.289Z,98942.22
2023-04-11T22:40:02.396Z,99014.72
2023-04-11T22:42:31.718Z,98905.81
2023-04-11T22:44:59.699Z,98891.28
2023-04-11T22:47:29.020Z,99007.47
2023-04-11T22:49:57.852Z,99127.00
2023-04-11T22:52:26.518Z,98768.25
2023-04-11T22:54:56.382Z,99028.09
2023-04-11T22:57:24.289Z,98949.88
2023-04-11T22:59:53.649Z,98761.31
2023-04-11T23:02:23.298Z,98955.06
2023-04-11T23:04:51.384Z,99017.91
2023-04-11T23:07:19.496Z,99082.88
2023-04-11T23:09:47.366Z,98686.63
2023-04-11T23:12:15.675Z,98815.38
2023-04-11T23:14:43.523Z,98702.66
2023-04-11T23:17:13.501Z,98869.31
2023-04-11T23:19:41.426Z,98870.22
2023-04-11T23:22:09.878Z,98633.50
2023-04-11T23:24:37.843Z,98771.81
2023-04-11T23:27:06.648Z,98686.69
2023-04-11T23:29:34.557Z,98888.25
2023-04-11T23:32:02.460Z,98735.34
2023-04-11T23:34:31.972Z,98663.19
2023-04-11T23:36:59.878Z,98909.09
2023-04-11T23:39:27.741Z,98892.09
2023-04-11T23:41:55.548Z,98954.38
2023-04-11T23:44:23.413Z,98794.78
2023-04-11T23:46:51.416Z,98949.13
2023-04-11T23:49:19.462Z,98874.81
2023-04-11T23:51:48.733Z,98899.50
2023-04-11T23:54:16.645Z,98807.63
2023-04-11T23:56:44.998Z,98801.16
2023-04-11T23:59:12.932Z,98781.53
